Wilson Gaeta — 8PTS — position and weather

sailwx.info

Track history (hours):
 
Tides and Currents Weather Stations Pressure Air Temp Water Temp Dewpoint Dewpoint Depression Visibility Wind Speed Wind Dir Waves Ship Positions

Wilson Gaeta

Last reported at 2015-Mar-28 02:24 UTC. Time now 2015-Mar-29 12:29 UTC.
Position N 39°23' W 009°51'.

Length 88 m; draft 5.5 m.

Type: Cargo ship. MMSI: 314237000.

Date/timePositionNaut miles runAvg speedWind from/ knotsBaromVisibWave heightAir tempDewpointWater temp
2015-Mar-28 02:24N 39°23' W 009°51'14 7.0
2015-Mar-28 00:23N 39°09' W 009°52'6 7.3
2015-Mar-27 23:32N 39°03' W 009°52'22 7.3
2015-Mar-27 20:33N 38°41' W 009°51'7 7.1
2015-Mar-27 19:33N 38°34' W 009°49'7 7.1
2015-Mar-27 18:33N 38°27' W 009°47'8 7.1
2015-Mar-27 17:22N 38°19' W 009°44'64 7.2
2015-Mar-27 08:27N 37°16' W 009°26'9 7.2
2015-Mar-27 07:15N 37°08' W 009°24'7 7.3
2015-Mar-27 06:14N 37°00' W 009°21'  
2015-Mar-24 16:21N 37°05' W 000°49'7 8.8
2015-Mar-24 15:31N 37°09' W 000°41'170 8.5
2015-Mar-23 19:29N 38°36' E 002°24'10 8.8
2015-Mar-23 18:19N 38°41' E 002°36'7 8.9
2015-Mar-23 17:32N 38°45' E 002°43'9 9.0
2015-Mar-23 16:33N 38°49' E 002°53'10 9.1
2015-Mar-23 15:30N 38°54' E 003°04'9 9.0
2015-Mar-23 14:31N 38°58' E 003°14'11 8.6
2015-Mar-23 13:16N 39°04' E 003°25'  
2015-Mar-21 04:12N 42°56' E 010°33'0 0.0
2015-Mar-20 18:09N 42°56' E 010°33'2 0.0
2015-Mar-18 21:31N 42°54' E 010°32'9 9.5
2015-Mar-18 20:34N 42°60' E 010°23'10 9.7
2015-Mar-18 19:33N 43°07' E 010°14'7 7.2
2015-Mar-18 18:33N 43°14' E 010°11'6 6.3
2015-Mar-18 17:34N 43°20' E 010°09'10 9.5
2015-Mar-18 16:33N 43°29' E 010°11'6 5.8
2015-Mar-18 15:32N 43°33' E 010°18'0 0.0
2015-Mar-18 14:32N 43°33' E 010°18'0 0.0
2015-Mar-18 13:32N 43°33' E 010°18'0 0.0
2015-Mar-18 12:32N 43°33' E 010°18'0 0.0
2015-Mar-18 11:32N 43°33' E 010°18'0 0.0
2015-Mar-18 10:32N 43°33' E 010°18'0 0.0
2015-Mar-18 09:32N 43°33' E 010°18'0 0.0
2015-Mar-18 08:32N 43°33' E 010°18'  
Track history (hours):
 
Tides and Currents Weather Stations Pressure Air Temp Water Temp Dewpoint Dewpoint Depression Visibility Wind Speed Wind Dir Waves Ship Positions

Wilson Gaeta

Last reported at 2015-Mar-28 02:24 UTC. Time now 2015-Mar-29 12:29 UTC.
Position N 39°23' W 009°51'.

Length 88 m; draft 5.5 m.

Type: Cargo ship. MMSI: 314237000.

Date/timePositionNaut miles runAvg speedWind from/ knotsBaromVisibWave heightAir tempDewpointWater temp
2015-Mar-28 02:24N 39°23' W 009°51'14 7.0
2015-Mar-28 00:23N 39°09' W 009°52'6 7.3
2015-Mar-27 23:32N 39°03' W 009°52'22 7.3
2015-Mar-27 20:33N 38°41' W 009°51'7 7.1
2015-Mar-27 19:33N 38°34' W 009°49'7 7.1
2015-Mar-27 18:33N 38°27' W 009°47'8 7.1
2015-Mar-27 17:22N 38°19' W 009°44'64 7.2
2015-Mar-27 08:27N 37°16' W 009°26'9 7.2
2015-Mar-27 07:15N 37°08' W 009°24'7 7.3
2015-Mar-27 06:14N 37°00' W 009°21'  
2015-Mar-24 16:21N 37°05' W 000°49'7 8.8
2015-Mar-24 15:31N 37°09' W 000°41'170 8.5
2015-Mar-23 19:29N 38°36' E 002°24'10 8.8
2015-Mar-23 18:19N 38°41' E 002°36'7 8.9
2015-Mar-23 17:32N 38°45' E 002°43'9 9.0
2015-Mar-23 16:33N 38°49' E 002°53'10 9.1
2015-Mar-23 15:30N 38°54' E 003°04'9 9.0
2015-Mar-23 14:31N 38°58' E 003°14'11 8.6
2015-Mar-23 13:16N 39°04' E 003°25'  
2015-Mar-21 04:12N 42°56' E 010°33'0 0.0
2015-Mar-20 18:09N 42°56' E 010°33'2 0.0
2015-Mar-18 21:31N 42°54' E 010°32'9 9.5
2015-Mar-18 20:34N 42°60' E 010°23'10 9.7
2015-Mar-18 19:33N 43°07' E 010°14'7 7.2
2015-Mar-18 18:33N 43°14' E 010°11'6 6.3
2015-Mar-18 17:34N 43°20' E 010°09'10 9.5
2015-Mar-18 16:33N 43°29' E 010°11'6 5.8
2015-Mar-18 15:32N 43°33' E 010°18'0 0.0
2015-Mar-18 14:32N 43°33' E 010°18'0 0.0
2015-Mar-18 13:32N 43°33' E 010°18'0 0.0
2015-Mar-18 12:32N 43°33' E 010°18'0 0.0
2015-Mar-18 11:32N 43°33' E 010°18'0 0.0
2015-Mar-18 10:32N 43°33' E 010°18'0 0.0
2015-Mar-18 09:32N 43°33' E 010°18'0 0.0
2015-Mar-18 08:32N 43°33' E 010°18'  

Dump ship's entire track history